sensor_id;sensor_type;location;lat;lon;timestamp;temperature;humidity
14000;DHT22;7075;53.574;10.054;2022-08-19T00:01:49;21.70;99.90
14000;DHT22;7075;53.574;10.054;2022-08-19T00:04:17;21.70;99.90
14000;DHT22;7075;53.574;10.054;2022-08-19T00:06:45;21.70;99.90
14000;DHT22;7075;53.574;10.054;2022-08-19T00:09:13;21.60;99.90
14000;DHT22;7075;53.574;10.054;2022-08-19T00:11:39;21.60;99.90
14000;DHT22;7075;53.574;10.054;2022-08-19T00:14:07;21.60;99.90
14000;DHT22;7075;53.574;10.054;2022-08-19T00:16:35;21.50;99.90
14000;DHT22;7075;53.574;10.054;2022-08-19T00:19:01;21.40;99.90
14000;DHT22;7075;53.574;10.054;2022-08-19T00:21:27;21.40;99.90
14000;DHT22;7075;53.574;10.054;2022-08-19T00:23:53;21.30;99.90
14000;DHT22;7075;53.574;10.054;2022-08-19T00:26:20;21.30;99.90
14000;DHT22;7075;53.574;10.054;2022-08-19T00:28:46;21.40;99.90
14000;DHT22;7075;53.574;10.054;2022-08-19T00:31:12;21.30;99.90
14000;DHT22;7075;53.574;10.054;2022-08-19T00:33:37;21.20;99.90
14000;DHT22;7075;53.574;10.054;2022-08-19T00:36:06;21.10;99.90
14000;DHT22;7075;53.574;10.054;2022-08-19T00:38:33;21.10;99.90
14000;DHT22;7075;53.574;10.054;2022-08-19T00:40:58;21.10;99.90
14000;DHT22;7075;53.574;10.054;2022-08-19T00:43:26;21.00;99.90
14000;DHT22;7075;53.574;10.054;2022-08-19T00:45:53;21.10;99.90
14000;DHT22;7075;53.574;10.054;2022-08-19T00:48:19;21.10;99.90
14000;DHT22;7075;53.574;10.054;2022-08-19T00:50:47;21.10;99.90
14000;DHT22;7075;53.574;10.054;2022-08-19T00:53:16;21.10;99.90
14000;DHT22;7075;53.574;10.054;2022-08-19T00:55:49;21.10;99.90
14000;DHT22;7075;53.574;10.054;2022-08-19T00:58:18;21.10;99.90
14000;DHT22;7075;53.574;10.054;2022-08-19T01:00:46;21.10;99.90
14000;DHT22;7075;53.574;10.054;2022-08-19T01:03:16;21.10;99.90
14000;DHT22;7075;53.574;10.054;2022-08-19T01:05:44;21.10;99.90
14000;DHT22;7075;53.574;10.054;2022-08-19T01:08:11;21.20;99.90
14000;DHT22;7075;53.574;10.054;2022-08-19T01:10:40;21.20;99.90
14000;DHT22;7075;53.574;10.054;2022-08-19T01:13:07;21.10;99.90
14000;DHT22;7075;53.574;10.054;2022-08-19T01:15:35;21.00;99.90
14000;DHT22;7075;53.574;10.054;2022-08-19T01:18:10;21.10;99.90
14000;DHT22;7075;53.574;10.054;2022-08-19T01:20:37;21.00;99.90
14000;DHT22;7075;53.574;10.054;2022-08-19T01:23:03;20.90;99.90
14000;DHT22;7075;53.574;10.054;2022-08-19T01:25:42;20.90;99.90
14000;DHT22;7075;53.574;10.054;2022-08-19T01:28:18;20.90;99.90
14000;DHT22;7075;53.574;10.054;2022-08-19T01:30:44;20.80;99.90
14000;DHT22;7075;53.574;10.054;2022-08-19T01:33:10;20.80;99.90
14000;DHT22;7075;53.574;10.054;2022-08-19T01:35:36;20.70;99.90
14000;DHT22;7075;53.574;10.054;2022-08-19T01:38:05;20.70;99.90
14000;DHT22;7075;53.574;10.054;2022-08-19T01:40:35;20.60;99.90
14000;DHT22;7075;53.574;10.054;2022-08-19T01:43:02;20.70;99.90
14000;DHT22;7075;53.574;10.054;2022-08-19T01:45:29;20.70;99.90
14000;DHT22;7075;53.574;10.054;2022-08-19T01:47:56;20.70;99.90
14000;DHT22;7075;53.574;10.054;2022-08-19T01:50:21;20.60;99.90
14000;DHT22;7075;53.574;10.054;2022-08-19T01:52:47;20.60;99.90
14000;DHT22;7075;53.574;10.054;2022-08-19T01:55:16;20.60;99.90
14000;DHT22;7075;53.574;10.054;2022-08-19T01:57:46;20.50;99.90
14000;DHT22;7075;53.574;10.054;2022-08-19T02:00:16;20.60;99.90
14000;DHT22;7075;53.574;10.054;2022-08-19T02:02:42;20.50;99.90
14000;DHT22;7075;53.574;10.054;2022-08-19T02:05:08;20.50;99.90
14000;DHT22;7075;53.574;10.054;2022-08-19T02:07:35;20.50;99.90
14000;DHT22;7075;53.574;10.054;2022-08-19T02:10:03;20.40;99.90
14000;DHT22;7075;53.574;10.054;2022-08-19T02:12:29;20.40;99.90
14000;DHT22;7075;53.574;10.054;2022-08-19T02:14:55;20.40;99.90
14000;DHT22;7075;53.574;10.054;2022-08-19T02:17:20;20.40;99.90
14000;DHT22;7075;53.574;10.054;2022-08-19T02:19:46;20.60;99.90
14000;DHT22;7075;53.574;10.054;2022-08-19T02:22:11;20.60;99.90
14000;DHT22;7075;53.574;10.054;2022-08-19T02:24:37;20.60;99.90
14000;DHT22;7075;53.574;10.054;2022-08-19T02:27:04;20.50;99.90
14000;DHT22;7075;53.574;10.054;2022-08-19T02:29:31;20.60;99.90
14000;DHT22;7075;53.574;10.054;2022-08-19T02:31:57;20.50;99.90
14000;DHT22;7075;53.574;10.054;2022-08-19T02:34:22;20.30;99.90
14000;DHT22;7075;53.574;10.054;2022-08-19T02:36:50;20.40;99.90
14000;DHT22;7075;53.574;10.054;2022-08-19T02:39:16;20.40;99.90
14000;DHT22;7075;53.574;10.054;2022-08-19T02:41:42;20.40;99.90
14000;DHT22;7075;53.574;10.054;2022-08-19T02:44:07;20.40;99.90
14000;DHT22;7075;53.574;10.054;2022-08-19T02:46:33;20.40;99.90
14000;DHT22;7075;53.574;10.054;2022-08-19T02:49:03;20.40;99.90
14000;DHT22;7075;53.574;10.054;2022-08-19T02:51:34;20.40;99.90
14000;DHT22;7075;53.574;10.054;2022-08-19T02:54:02;20.40;99.90
14000;DHT22;7075;53.574;10.054;2022-08-19T02:56:27;20.40;99.90
14000;DHT22;7075;53.574;10.054;2022-08-19T02:58:57;20.50;99.90
14000;DHT22;7075;53.574;10.054;2022-08-19T03:01:32;20.60;99.90
14000;DHT22;7075;53.574;10.054;2022-08-19T03:04:00;20.50;99.90
14000;DHT22;7075;53.574;10.054;2022-08-19T03:06:26;20.50;99.90
14000;DHT22;7075;53.574;10.054;2022-08-19T03:08:53;20.30;99.90
14000;DHT22;7075;53.574;10.054;2022-08-19T03:11:22;20.30;99.90
14000;DHT22;7075;53.574;10.054;2022-08-19T03:13:48;20.30;99.90
14000;DHT22;7075;53.574;10.054;2022-08-19T03:16:18;20.40;99.90
14000;DHT22;7075;53.574;10.054;2022-08-19T03:18:44;20.50;99.90
14000;DHT22;7075;53.574;10.054;2022-08-19T03:21:16;20.40;99.90
14000;DHT22;7075;53.574;10.054;2022-08-19T03:23:41;20.30;99.90
14000;DHT22;7075;53.574;10.054;2022-08-19T03:26:07;20.30;99.90
14000;DHT22;7075;53.574;10.054;2022-08-19T03:28:33;20.30;99.90
14000;DHT22;7075;53.574;10.054;2022-08-19T03:31:09;20.20;99.90
14000;DHT22;7075;53.574;10.054;2022-08-19T03:33:36;20.20;99.90
14000;DHT22;7075;53.574;10.054;2022-08-19T03:36:05;20.20;99.90
14000;DHT22;7075;53.574;10.054;2022-08-19T03:38:32;20.20;99.90
14000;DHT22;7075;53.574;10.054;2022-08-19T03:41:02;20.30;99.90
14000;DHT22;7075;53.574;10.054;2022-08-19T03:43:28;20.20;99.90
14000;DHT22;7075;53.574;10.054;2022-08-19T03:46:24;20.20;99.90
14000;DHT22;7075;53.574;10.054;2022-08-19T03:48:53;20.00;99.90
14000;DHT22;7075;53.574;10.054;2022-08-19T03:51:30;19.90;99.90
14000;DHT22;7075;53.574;10.054;2022-08-19T03:53:58;19.90;99.90
14000;DHT22;7075;53.574;10.054;2022-08-19T03:56:26;19.90;99.90
14000;DHT22;7075;53.574;10.054;2022-08-19T03:58:53;20.00;99.90
14000;DHT22;7075;53.574;10.054;2022-08-19T04:01:20;20.10;99.90
14000;DHT22;7075;53.574;10.054;2022-08-19T04:03:47;20.10;99.90
14000;DHT22;7075;53.574;10.054;2022-08-19T04:06:18;20.10;99.90
14000;DHT22;7075;53.574;10.054;2022-08-19T04:08:46;20.10;99.90
14000;DHT22;7075;53.574;10.054;2022-08-19T04:11:15;20.20;99.90
14000;DHT22;7075;53.574;10.054;2022-08-19T04:13:41;20.20;99.90
14000;DHT22;7075;53.574;10.054;2022-08-19T04:16:10;20.20;99.90
14000;DHT22;7075;53.574;10.054;2022-08-19T04:18:37;20.20;99.90
14000;DHT22;7075;53.574;10.054;2022-08-19T04:21:04;20.20;99.90
14000;DHT22;7075;53.574;10.054;2022-08-19T04:23:30;20.20;99.90
14000;DHT22;7075;53.574;10.054;2022-08-19T04:25:55;20.20;99.90
14000;DHT22;7075;53.574;10.054;2022-08-19T04:28:22;20.20;99.90
14000;DHT22;7075;53.574;10.054;2022-08-19T04:30:50;20.20;99.90
14000;DHT22;7075;53.574;10.054;2022-08-19T04:33:19;20.20;99.90
14000;DHT22;7075;53.574;10.054;2022-08-19T04:35:47;20.10;99.90
14000;DHT22;7075;53.574;10.054;2022-08-19T04:38:15;20.00;99.90
14000;DHT22;7075;53.574;10.054;2022-08-19T04:40:43;19.90;99.90
14000;DHT22;7075;53.574;10.054;2022-08-19T04:43:28;19.90;99.90
14000;DHT22;7075;53.574;10.054;2022-08-19T04:45:54;20.00;99.90
14000;DHT22;7075;53.574;10.054;2022-08-19T04:48:20;20.00;99.90
14000;DHT22;7075;53.574;10.054;2022-08-19T04:50:54;20.00;99.90
14000;DHT22;7075;53.574;10.054;2022-08-19T04:53:31;20.00;99.90
14000;DHT22;7075;53.574;10.054;2022-08-19T04:55:58;19.90;99.90
14000;DHT22;7075;53.574;10.054;2022-08-19T04:58:25;19.90;99.90
14000;DHT22;7075;53.574;10.054;2022-08-19T05:00:51;19.80;99.90
14000;DHT22;7075;53.574;10.054;2022-08-19T05:03:17;19.90;99.90
14000;DHT22;7075;53.574;10.054;2022-08-19T05:05:44;19.90;99.90
14000;DHT22;7075;53.574;10.054;2022-08-19T05:08:12;19.90;99.90
14000;DHT22;7075;53.574;10.054;2022-08-19T05:10:39;20.00;99.90
14000;DHT22;7075;53.574;10.054;2022-08-19T05:13:05;20.00;99.90
14000;DHT22;7075;53.574;10.054;2022-08-19T05:15:31;20.00;99.90
14000;DHT22;7075;53.574;10.054;2022-08-19T05:17:56;20.00;99.90
14000;DHT22;7075;53.574;10.054;2022-08-19T05:20:41;20.00;99.90
14000;DHT22;7075;53.574;10.054;2022-08-19T05:23:25;20.10;99.90
14000;DHT22;7075;53.574;10.054;2022-08-19T05:25:51;20.10;99.90
14000;DHT22;7075;53.574;10.054;2022-08-19T05:28:18;20.20;99.90
14000;DHT22;7075;53.574;10.054;2022-08-19T05:30:44;20.20;99.90
14000;DHT22;7075;53.574;10.054;2022-08-19T05:33:11;20.20;99.90
14000;DHT22;7075;53.574;10.054;2022-08-19T05:35:38;20.30;99.90
14000;DHT22;7075;53.574;10.054;2022-08-19T05:38:05;20.30;99.90
14000;DHT22;7075;53.574;10.054;2022-08-19T05:40:34;20.20;99.90
14000;DHT22;7075;53.574;10.054;2022-08-19T05:43:02;20.10;99.90
14000;DHT22;7075;53.574;10.054;2022-08-19T05:45:28;20.10;99.90
14000;DHT22;7075;53.574;10.054;2022-08-19T05:47:54;20.20;99.90
14000;DHT22;7075;53.574;10.054;2022-08-19T05:50:20;20.20;99.90
14000;DHT22;7075;53.574;10.054;2022-08-19T05:52:46;20.30;99.90
14000;DHT22;7075;53.574;10.054;2022-08-19T05:55:11;20.20;99.90
14000;DHT22;7075;53.574;10.054;2022-08-19T05:57:37;20.20;99.90
14000;DHT22;7075;53.574;10.054;2022-08-19T06:00:05;20.10;99.90
14000;DHT22;7075;53.574;10.054;2022-08-19T06:02:34;20.10;99.90
14000;DHT22;7075;53.574;10.054;2022-08-19T06:05:01;20.10;99.90
14000;DHT22;7075;53.574;10.054;2022-08-19T06:07:27;20.00;99.90
14000;DHT22;7075;53.574;10.054;2022-08-19T06:09:54;20.00;99.90
14000;DHT22;7075;53.574;10.054;2022-08-19T06:12:20;20.00;99.90
14000;DHT22;7075;53.574;10.054;2022-08-19T06:14:56;20.00;99.90
14000;DHT22;7075;53.574;10.054;2022-08-19T06:17:21;20.00;99.90
14000;DHT22;7075;53.574;10.054;2022-08-19T06:19:50;20.00;99.90
14000;DHT22;7075;53.574;10.054;2022-08-19T06:22:15;19.90;99.90
14000;DHT22;7075;53.574;10.054;2022-08-19T06:24:41;20.00;99.90
14000;DHT22;7075;53.574;10.054;2022-08-19T06:27:07;20.00;99.90
14000;DHT22;7075;53.574;10.054;2022-08-19T06:29:33;20.00;99.90
14000;DHT22;7075;53.574;10.054;2022-08-19T06:32:02;20.10;99.90
14000;DHT22;7075;53.574;10.054;2022-08-19T06:34:30;20.10;99.90
14000;DHT22;7075;53.574;10.054;2022-08-19T06:36:57;20.20;99.90
14000;DHT22;7075;53.574;10.054;2022-08-19T06:39:28;20.20;99.90
14000;DHT22;7075;53.574;10.054;2022-08-19T06:41:57;20.20;99.90
14000;DHT22;7075;53.574;10.054;2022-08-19T06:44:26;20.20;99.90
14000;DHT22;7075;53.574;10.054;2022-08-19T06:46:53;20.20;99.90
14000;DHT22;7075;53.574;10.054;2022-08-19T06:49:19;20.20;99.90
14000;DHT22;7075;53.574;10.054;2022-08-19T06:51:47;20.20;99.90
14000;DHT22;7075;53.574;10.054;2022-08-19T06:54:14;20.20;99.90
14000;DHT22;7075;53.574;10.054;2022-08-19T06:56:41;20.20;99.90
14000;DHT22;7075;53.574;10.054;2022-08-19T06:59:09;20.20;99.90
14000;DHT22;7075;53.574;10.054;2022-08-19T07:01:40;20.30;99.90
14000;DHT22;7075;53.574;10.054;2022-08-19T07:04:07;20.40;99.90
14000;DHT22;7075;53.574;10.054;2022-08-19T07:06:35;20.40;99.90
14000;DHT22;7075;53.574;10.054;2022-08-19T07:09:01;20.30;99.90
14000;DHT22;7075;53.574;10.054;2022-08-19T07:11:27;20.30;99.90
14000;DHT22;7075;53.574;10.054;2022-08-19T07:13:53;20.20;99.90
14000;DHT22;7075;53.574;10.054;2022-08-19T07:16:20;20.20;99.90
14000;DHT22;7075;53.574;10.054;2022-08-19T07:18:48;20.20;99.90
14000;DHT22;7075;53.574;10.054;2022-08-19T07:21:23;20.20;99.90
14000;DHT22;7075;53.574;10.054;2022-08-19T07:23:50;20.20;99.90
14000;DHT22;7075;53.574;10.054;2022-08-19T07:26:24;20.20;99.90
14000;DHT22;7075;53.574;10.054;2022-08-19T07:28:51;20.20;99.90
14000;DHT22;7075;53.574;10.054;2022-08-19T07:31:20;20.20;99.90
14000;DHT22;7075;53.574;10.054;2022-08-19T07:33:48;20.20;99.90
14000;DHT22;7075;53.574;10.054;2022-08-19T07:36:17;20.30;99.90
14000;DHT22;7075;53.574;10.054;2022-08-19T07:38:45;20.40;99.90
14000;DHT22;7075;53.574;10.054;2022-08-19T07:41:17;20.40;99.90
14000;DHT22;7075;53.574;10.054;2022-08-19T07:43:43;20.40;99.90
14000;DHT22;7075;53.574;10.054;2022-08-19T07:46:10;20.30;99.90
14000;DHT22;7075;53.574;10.054;2022-08-19T07:48:37;20.30;99.90
14000;DHT22;7075;53.574;10.054;2022-08-19T07:51:06;20.30;99.90
14000;DHT22;7075;53.574;10.054;2022-08-19T07:53:34;20.30;99.90
14000;DHT22;7075;53.574;10.054;2022-08-19T07:56:00;20.30;99.90
14000;DHT22;7075;53.574;10.054;2022-08-19T07:58:32;20.30;99.90
14000;DHT22;7075;53.574;10.054;2022-08-19T08:00:58;20.40;99.90
14000;DHT22;7075;53.574;10.054;2022-08-19T08:03:25;20.40;99.90
14000;DHT22;7075;53.574;10.054;2022-08-19T08:06:11;20.50;99.90
14000;DHT22;7075;53.574;10.054;2022-08-19T08:08:55;20.40;99.90
14000;DHT22;7075;53.574;10.054;2022-08-19T08:11:42;20.40;99.90
14000;DHT22;7075;53.574;10.054;2022-08-19T08:14:21;20.40;99.90
14000;DHT22;7075;53.574;10.054;2022-08-19T08:16:48;20.40;99.90
14000;DHT22;7075;53.574;10.054;2022-08-19T08:19:18;20.40;99.90
14000;DHT22;7075;53.574;10.054;2022-08-19T08:21:44;20.50;99.90
14000;DHT22;7075;53.574;10.054;2022-08-19T08:24:11;20.50;99.90
14000;DHT22;7075;53.574;10.054;2022-08-19T08:26:38;20.40;99.90
14000;DHT22;7075;53.574;10.054;2022-08-19T08:29:04;20.30;99.90
14000;DHT22;7075;53.574;10.054;2022-08-19T08:31:32;20.30;99.90
14000;DHT22;7075;53.574;10.054;2022-08-19T08:33:59;20.30;99.90
14000;DHT22;7075;53.574;10.054;2022-08-19T08:36:25;20.30;99.90
14000;DHT22;7075;53.574;10.054;2022-08-19T08:38:51;20.30;99.90
14000;DHT22;7075;53.574;10.054;2022-08-19T08:43:53;20.20;99.90
14000;DHT22;7075;53.574;10.054;2022-08-19T08:46:37;20.20;99.90
14000;DHT22;7075;53.574;10.054;2022-08-19T08:52:31;20.20;99.90
14000;DHT22;7075;53.574;10.054;2022-08-19T08:55:05;20.20;99.90
14000;DHT22;7075;53.574;10.054;2022-08-19T08:57:36;20.20;99.90
14000;DHT22;7075;53.574;10.054;2022-08-19T09:00:07;20.20;99.90
14000;DHT22;7075;53.574;10.054;2022-08-19T09:02:33;20.30;99.90
14000;DHT22;7075;53.574;10.054;2022-08-19T09:04:59;20.30;99.90
14000;DHT22;7075;53.574;10.054;2022-08-19T09:07:39;20.20;99.90
14000;DHT22;7075;53.574;10.054;2022-08-19T09:15:45;20.30;99.90
14000;DHT22;7075;53.574;10.054;2022-08-19T09:18:12;20.30;99.90
14000;DHT22;7075;53.574;10.054;2022-08-19T09:20:38;20.40;99.90
14000;DHT22;7075;53.574;10.054;2022-08-19T09:23:03;20.40;99.90
14000;DHT22;7075;53.574;10.054;2022-08-19T09:25:29;20.40;99.90
14000;DHT22;7075;53.574;10.054;2022-08-19T09:27:58;20.40;99.90
14000;DHT22;7075;53.574;10.054;2022-08-19T09:30:30;20.40;99.90
14000;DHT22;7075;53.574;10.054;2022-08-19T09:32:56;20.50;99.90
14000;DHT22;7075;53.574;10.054;2022-08-19T09:35:24;20.50;99.90
14000;DHT22;7075;53.574;10.054;2022-08-19T09:37:52;20.50;99.90
14000;DHT22;7075;53.574;10.054;2022-08-19T09:40:19;20.50;99.90
14000;DHT22;7075;53.574;10.054;2022-08-19T09:42:46;20.60;99.90
14000;DHT22;7075;53.574;10.054;2022-08-19T09:45:16;20.60;99.90
14000;DHT22;7075;53.574;10.054;2022-08-19T09:47:42;20.60;99.90
14000;DHT22;7075;53.574;10.054;2022-08-19T09:50:10;20.60;99.90
14000;DHT22;7075;53.574;10.054;2022-08-19T09:52:36;20.70;99.90
14000;DHT22;7075;53.574;10.054;2022-08-19T09:55:08;20.70;99.90
14000;DHT22;7075;53.574;10.054;2022-08-19T09:57:35;20.60;99.90
14000;DHT22;7075;53.574;10.054;2022-08-19T10:00:01;20.50;99.90
14000;DHT22;7075;53.574;10.054;2022-08-19T10:02:28;20.50;99.90
14000;DHT22;7075;53.574;10.054;2022-08-19T10:04:55;20.50;99.90
14000;DHT22;7075;53.574;10.054;2022-08-19T10:07:40;20.40;99.90
14000;DHT22;7075;53.574;10.054;2022-08-19T10:10:06;20.40;99.90
14000;DHT22;7075;53.574;10.054;2022-08-19T10:12:33;20.40;99.90
14000;DHT22;7075;53.574;10.054;2022-08-19T10:14:59;20.50;99.90
14000;DHT22;7075;53.574;10.054;2022-08-19T10:17:26;20.60;99.90
14000;DHT22;7075;53.574;10.054;2022-08-19T10:19:52;20.60;99.90
14000;DHT22;7075;53.574;10.054;2022-08-19T10:22:18;20.70;99.90
14000;DHT22;7075;53.574;10.054;2022-08-19T10:24:45;20.80;99.90
14000;DHT22;7075;53.574;10.054;2022-08-19T10:27:11;20.80;99.90
14000;DHT22;7075;53.574;10.054;2022-08-19T10:29:38;20.80;99.90
14000;DHT22;7075;53.574;10.054;2022-08-19T10:32:06;20.90;99.90
14000;DHT22;7075;53.574;10.054;2022-08-19T10:34:32;21.00;99.90
14000;DHT22;7075;53.574;10.054;2022-08-19T10:36:59;21.00;99.90
14000;DHT22;7075;53.574;10.054;2022-08-19T10:39:26;21.00;99.90
14000;DHT22;7075;53.574;10.054;2022-08-19T10:41:53;21.00;99.90
14000;DHT22;7075;53.574;10.054;2022-08-19T10:44:21;21.00;99.90
14000;DHT22;7075;53.574;10.054;2022-08-19T10:46:48;21.00;99.90
14000;DHT22;7075;53.574;10.054;2022-08-19T10:49:14;21.00;99.90
14000;DHT22;7075;53.574;10.054;2022-08-19T10:51:40;21.10;99.90
14000;DHT22;7075;53.574;10.054;2022-08-19T10:54:25;21.10;99.90
14000;DHT22;7075;53.574;10.054;2022-08-19T10:57:10;21.10;99.90
14000;DHT22;7075;53.574;10.054;2022-08-19T10:59:36;21.00;99.90
14000;DHT22;7075;53.574;10.054;2022-08-19T11:02:06;21.00;99.90
14000;DHT22;7075;53.574;10.054;2022-08-19T11:04:32;20.90;99.90
14000;DHT22;7075;53.574;10.054;2022-08-19T11:07:11;20.90;99.90
14000;DHT22;7075;53.574;10.054;2022-08-19T11:09:39;21.00;99.90
14000;DHT22;7075;53.574;10.054;2022-08-19T11:12:06;21.00;99.90
14000;DHT22;7075;53.574;10.054;2022-08-19T11:14:33;21.00;99.90
14000;DHT22;7075;53.574;10.054;2022-08-19T11:16:59;21.00;99.90
14000;DHT22;7075;53.574;10.054;2022-08-19T11:19:25;21.10;99.90
14000;DHT22;7075;53.574;10.054;2022-08-19T11:21:51;21.10;99.90
14000;DHT22;7075;53.574;10.054;2022-08-19T11:24:21;21.10;99.90
14000;DHT22;7075;53.574;10.054;2022-08-19T11:26:49;21.10;99.90
14000;DHT22;7075;53.574;10.054;2022-08-19T11:29:17;21.10;99.90
14000;DHT22;7075;53.574;10.054;2022-08-19T11:31:46;21.20;99.90
14000;DHT22;7075;53.574;10.054;2022-08-19T11:34:15;21.20;99.90
14000;DHT22;7075;53.574;10.054;2022-08-19T11:36:43;21.30;99.90
14000;DHT22;7075;53.574;10.054;2022-08-19T11:39:11;21.60;99.90
14000;DHT22;7075;53.574;10.054;2022-08-19T11:41:37;21.70;99.90
14000;DHT22;7075;53.574;10.054;2022-08-19T11:44:03;21.70;99.90
14000;DHT22;7075;53.574;10.054;2022-08-19T11:46:30;21.70;99.90
14000;DHT22;7075;53.574;10.054;2022-08-19T11:48:58;21.80;99.90
14000;DHT22;7075;53.574;10.054;2022-08-19T11:51:27;21.80;99.90
14000;DHT22;7075;53.574;10.054;2022-08-19T11:53:55;21.80;99.90
14000;DHT22;7075;53.574;10.054;2022-08-19T11:56:22;21.70;99.90
14000;DHT22;7075;53.574;10.054;2022-08-19T11:58:48;21.80;99.90
14000;DHT22;7075;53.574;10.054;2022-08-19T12:01:16;21.90;99.90
14000;DHT22;7075;53.574;10.054;2022-08-19T12:03:47;22.00;99.90
14000;DHT22;7075;53.574;10.054;2022-08-19T12:06:23;21.90;99.90
14000;DHT22;7075;53.574;10.054;2022-08-19T12:08:51;21.90;99.90
14000;DHT22;7075;53.574;10.054;2022-08-19T12:11:17;21.80;99.90
14000;DHT22;7075;53.574;10.054;2022-08-19T12:13:44;21.80;99.90
14000;DHT22;7075;53.574;10.054;2022-08-19T12:16:15;21.80;99.90
14000;DHT22;7075;53.574;10.054;2022-08-19T12:18:42;21.70;99.90
14000;DHT22;7075;53.574;10.054;2022-08-19T12:21:14;21.70;99.90
14000;DHT22;7075;53.574;10.054;2022-08-19T12:23:42;21.70;99.90
14000;DHT22;7075;53.574;10.054;2022-08-19T12:26:10;21.70;99.90
14000;DHT22;7075;53.574;10.054;2022-08-19T12:28:37;21.80;99.90
14000;DHT22;7075;53.574;10.054;2022-08-19T12:31:03;21.90;99.90
14000;DHT22;7075;53.574;10.054;2022-08-19T12:33:29;22.00;99.90
14000;DHT22;7075;53.574;10.054;2022-08-19T12:35:55;22.20;99.90
14000;DHT22;7075;53.574;10.054;2022-08-19T12:38:25;22.30;99.90
14000;DHT22;7075;53.574;10.054;2022-08-19T12:40:50;22.50;99.90
14000;DHT22;7075;53.574;10.054;2022-08-19T12:43:17;22.60;99.90
14000;DHT22;7075;53.574;10.054;2022-08-19T12:45:45;22.80;99.90
14000;DHT22;7075;53.574;10.054;2022-08-19T12:48:11;23.00;99.90
14000;DHT22;7075;53.574;10.054;2022-08-19T12:50:43;23.10;99.90
14000;DHT22;7075;53.574;10.054;2022-08-19T12:53:11;23.10;99.90
14000;DHT22;7075;53.574;10.054;2022-08-19T12:55:37;23.20;99.90
14000;DHT22;7075;53.574;10.054;2022-08-19T12:58:03;23.10;99.90
14000;DHT22;7075;53.574;10.054;2022-08-19T13:00:29;23.10;99.90
14000;DHT22;7075;53.574;10.054;2022-08-19T13:02:55;23.10;99.90
14000;DHT22;7075;53.574;10.054;2022-08-19T13:05:24;23.10;99.90
14000;DHT22;7075;53.574;10.054;2022-08-19T13:07:51;23.10;99.90
14000;DHT22;7075;53.574;10.054;2022-08-19T13:10:19;23.10;99.90
14000;DHT22;7075;53.574;10.054;2022-08-19T13:12:48;23.10;99.90
14000;DHT22;7075;53.574;10.054;2022-08-19T13:15:15;23.20;99.90
14000;DHT22;7075;53.574;10.054;2022-08-19T13:17:44;23.20;99.90
14000;DHT22;7075;53.574;10.054;2022-08-19T13:20:10;23.30;99.90
14000;DHT22;7075;53.574;10.054;2022-08-19T13:22:37;23.30;99.90
14000;DHT22;7075;53.574;10.054;2022-08-19T13:25:05;23.20;99.90
14000;DHT22;7075;53.574;10.054;2022-08-19T13:27:31;23.20;99.90
14000;DHT22;7075;53.574;10.054;2022-08-19T13:29:59;23.10;99.90
14000;DHT22;7075;53.574;10.054;2022-08-19T13:32:44;23.10;99.90
14000;DHT22;7075;53.574;10.054;2022-08-19T13:35:28;23.10;99.90
14000;DHT22;7075;53.574;10.054;2022-08-19T13:37:54;23.00;99.90
14000;DHT22;7075;53.574;10.054;2022-08-19T13:40:22;23.00;99.90
14000;DHT22;7075;53.574;10.054;2022-08-19T13:42:51;23.00;99.90
14000;DHT22;7075;53.574;10.054;2022-08-19T13:45:20;23.00;99.90
14000;DHT22;7075;53.574;10.054;2022-08-19T13:47:47;23.00;99.90
14000;DHT22;7075;53.574;10.054;2022-08-19T13:50:15;23.10;99.90
14000;DHT22;7075;53.574;10.054;2022-08-19T13:52:42;23.00;99.90
14000;DHT22;7075;53.574;10.054;2022-08-19T13:55:09;23.00;99.90
14000;DHT22;7075;53.574;10.054;2022-08-19T13:57:35;23.00;99.90
14000;DHT22;7075;53.574;10.054;2022-08-19T14:00:03;23.00;99.90
14000;DHT22;7075;53.574;10.054;2022-08-19T14:02:29;22.90;99.90
14000;DHT22;7075;53.574;10.054;2022-08-19T14:04:54;22.90;99.90
14000;DHT22;7075;53.574;10.054;2022-08-19T14:07:20;23.00;99.90
14000;DHT22;7075;53.574;10.054;2022-08-19T14:09:49;23.10;99.90
14000;DHT22;7075;53.574;10.054;2022-08-19T14:12:19;23.10;99.90
14000;DHT22;7075;53.574;10.054;2022-08-19T14:14:44;23.20;99.90
14000;DHT22;7075;53.574;10.054;2022-08-19T14:17:10;23.20;99.90
14000;DHT22;7075;53.574;10.054;2022-08-19T14:19:35;23.10;99.90
14000;DHT22;7075;53.574;10.054;2022-08-19T14:22:01;23.10;99.90
14000;DHT22;7075;53.574;10.054;2022-08-19T14:24:27;22.90;99.90
14000;DHT22;7075;53.574;10.054;2022-08-19T14:26:54;22.90;99.90
14000;DHT22;7075;53.574;10.054;2022-08-19T14:29:20;22.90;99.90
14000;DHT22;7075;53.574;10.054;2022-08-19T14:31:45;22.80;99.90
14000;DHT22;7075;53.574;10.054;2022-08-19T14:34:11;22.80;99.90
14000;DHT22;7075;53.574;10.054;2022-08-19T14:36:38;22.90;99.90
14000;DHT22;7075;53.574;10.054;2022-08-19T14:39:04;22.90;99.90
14000;DHT22;7075;53.574;10.054;2022-08-19T14:41:30;23.00;99.90
14000;DHT22;7075;53.574;10.054;2022-08-19T14:43:56;23.00;99.90
14000;DHT22;7075;53.574;10.054;2022-08-19T14:46:24;23.10;99.90
14000;DHT22;7075;53.574;10.054;2022-08-19T14:48:51;23.10;99.90
14000;DHT22;7075;53.574;10.054;2022-08-19T14:51:18;23.10;99.90
14000;DHT22;7075;53.574;10.054;2022-08-19T14:53:44;23.20;99.90
14000;DHT22;7075;53.574;10.054;2022-08-19T14:56:13;23.30;99.90
14000;DHT22;7075;53.574;10.054;2022-08-19T14:58:42;23.30;99.90
14000;DHT22;7075;53.574;10.054;2022-08-19T15:01:10;23.40;99.90
14000;DHT22;7075;53.574;10.054;2022-08-19T15:03:36;23.50;99.90
14000;DHT22;7075;53.574;10.054;2022-08-19T15:06:04;23.50;99.90
14000;DHT22;7075;53.574;10.054;2022-08-19T15:08:31;23.60;99.90
14000;DHT22;7075;53.574;10.054;2022-08-19T15:10:59;23.50;99.90
14000;DHT22;7075;53.574;10.054;2022-08-19T15:13:25;23.50;99.90
14000;DHT22;7075;53.574;10.054;2022-08-19T15:15:52;23.50;99.90
14000;DHT22;7075;53.574;10.054;2022-08-19T15:18:18;23.20;99.90
14000;DHT22;7075;53.574;10.054;2022-08-19T15:20:46;23.10;99.90
14000;DHT22;7075;53.574;10.054;2022-08-19T15:23:13;23.20;99.90
14000;DHT22;7075;53.574;10.054;2022-08-19T15:25:39;23.40;99.90
14000;DHT22;7075;53.574;10.054;2022-08-19T15:28:06;23.50;99.90
14000;DHT22;7075;53.574;10.054;2022-08-19T15:30:32;23.50;99.90
14000;DHT22;7075;53.574;10.054;2022-08-19T15:32:59;23.50;99.90
14000;DHT22;7075;53.574;10.054;2022-08-19T15:35:25;23.40;99.90
14000;DHT22;7075;53.574;10.054;2022-08-19T15:37:52;23.40;99.90
14000;DHT22;7075;53.574;10.054;2022-08-19T15:40:19;23.40;99.90
14000;DHT22;7075;53.574;10.054;2022-08-19T15:42:46;23.40;99.90
14000;DHT22;7075;53.574;10.054;2022-08-19T15:45:15;23.50;99.90
14000;DHT22;7075;53.574;10.054;2022-08-19T15:47:41;23.40;99.90